Terminal Aerodrome Forecast
Issued by NWS

Home | Current Version | Previous Version | Text Only | Print | Product List | Glossary On
Versions: 1 2 3 4 5 6 7 8 9 10 11 12 13
446
FTUS44 KLIX 280520
TAFGPT
TAF
KGPT 280520Z 2806/2906 16007KT 6SM BR SCT015
     FM280700 16007KT 6SM BR BKN015
     FM280900 16007KT 5SM BR BKN008
     FM281700 16015KT P6SM OVC025
     FM281800 17014KT P6SM OVC015
     FM281900 16014KT P6SM OVC020=

USA.gov is the U.S. government's official web portal to all federal, state and local government web resources and services.